createdAt,value
2023-04-14T00:00:15.632Z,8.89
2023-04-14T00:01:15.597Z,9.00
2023-04-14T00:02:15.665Z,9.03
2023-04-14T00:03:15.793Z,9.00
2023-04-14T00:04:15.850Z,8.97
2023-04-14T00:05:15.666Z,8.94
2023-04-14T00:06:15.556Z,8.89
2023-04-14T00:07:15.530Z,8.89
2023-04-14T00:08:15.522Z,8.89
2023-04-14T00:09:15.486Z,8.87
2023-04-14T00:10:15.527Z,8.87
2023-04-14T00:11:15.471Z,8.84
2023-04-14T00:12:15.488Z,8.84
2023-04-14T00:13:15.452Z,8.82
2023-04-14T00:14:15.445Z,8.79
2023-04-14T00:15:15.468Z,8.78
2023-04-14T00:16:15.407Z,8.73
2023-04-14T00:17:15.421Z,8.71
2023-04-14T00:18:15.388Z,8.66
2023-04-14T00:19:15.374Z,8.74
2023-04-14T00:20:15.409Z,8.78
2023-04-14T00:21:15.348Z,8.78
2023-04-14T00:22:15.337Z,8.74
2023-04-14T00:23:15.330Z,8.71
2023-04-14T00:24:15.317Z,8.71
2023-04-14T00:25:15.311Z,8.73
2023-04-14T00:26:15.361Z,8.76
2023-04-14T00:27:15.287Z,8.76
2023-04-14T00:28:15.281Z,8.79
2023-04-14T00:29:15.255Z,8.82
2023-04-14T00:30:15.280Z,8.84
2023-04-14T00:31:15.378Z,8.84
2023-04-14T00:32:15.223Z,8.81
2023-04-14T00:33:15.212Z,8.78
2023-04-14T00:34:15.206Z,8.74
2023-04-14T00:35:15.218Z,8.74
2023-04-14T00:36:15.269Z,8.71
2023-04-14T00:37:15.164Z,8.70
2023-04-14T00:38:15.156Z,8.69
2023-04-14T00:39:15.153Z,8.74
2023-04-14T00:40:15.138Z,8.76
2023-04-14T00:41:15.179Z,8.76
2023-04-14T00:42:15.121Z,8.74
2023-04-14T00:43:15.097Z,8.71
2023-04-14T00:44:15.063Z,8.69
2023-04-14T00:45:15.077Z,8.64
2023-04-14T00:46:15.153Z,8.61
2023-04-14T00:47:15.068Z,8.58
2023-04-14T00:48:15.020Z,8.55
2023-04-14T00:49:15.014Z,8.60
2023-04-14T00:50:15.004Z,8.61
2023-04-14T00:51:15.048Z,8.61
2023-04-14T00:52:14.989Z,8.60
2023-04-14T00:53:14.990Z,8.55
2023-04-14T00:54:14.969Z,8.53
2023-04-14T00:55:14.955Z,8.51
2023-04-14T00:56:14.998Z,8.48
2023-04-14T00:57:14.959Z,8.45
2023-04-14T00:58:14.940Z,8.42
2023-04-14T00:59:14.902Z,8.44
2023-04-14T01:00:14.896Z,8.42
2023-04-14T01:01:14.988Z,8.44
2023-04-14T01:02:14.968Z,8.45
2023-04-14T01:03:14.979Z,8.46
2023-04-14T01:04:14.890Z,8.48
2023-04-14T01:05:15.087Z,8.51
2023-04-14T01:06:14.886Z,8.56
2023-04-14T01:07:14.805Z,8.58
2023-04-14T01:08:14.816Z,8.60
2023-04-14T01:09:14.794Z,8.56
2023-04-14T01:10:14.794Z,8.55
2023-04-14T01:11:14.819Z,8.60
2023-04-14T01:12:14.747Z,8.58
2023-04-14T01:13:14.746Z,8.60
2023-04-14T01:14:14.735Z,8.55
2023-04-14T01:15:14.731Z,8.52
2023-04-14T01:16:14.820Z,8.53
2023-04-14T01:17:14.710Z,8.55
2023-04-14T01:18:14.674Z,8.55
2023-04-14T01:19:14.675Z,8.52
2023-04-14T01:20:14.679Z,8.49
2023-04-14T01:21:14.685Z,8.46
2023-04-14T01:22:14.642Z,8.44
2023-04-14T01:23:14.628Z,8.38
2023-04-14T01:24:14.617Z,8.36
2023-04-14T01:25:14.602Z,8.31
2023-04-14T01:26:14.633Z,8.28
2023-04-14T01:27:14.570Z,8.24
2023-04-14T01:28:14.636Z,8.19
2023-04-14T01:29:14.556Z,8.15
2023-04-14T01:30:14.596Z,8.12
2023-04-14T01:31:14.594Z,8.10
2023-04-14T01:32:14.526Z,8.18
2023-04-14T01:33:14.516Z,8.20
2023-04-14T01:34:14.514Z,8.23
2023-04-14T01:35:14.525Z,8.23
2023-04-14T01:36:14.481Z,8.23
2023-04-14T01:37:14.464Z,8.23
2023-04-14T01:38:14.449Z,8.20
2023-04-14T01:39:14.452Z,8.18
2023-04-14T01:40:14.483Z,8.15
2023-04-14T01:41:14.420Z,8.13
2023-04-14T01:42:14.405Z,8.10
2023-04-14T01:43:14.424Z,8.09
2023-04-14T01:44:14.385Z,8.08
2023-04-14T01:45:14.410Z,8.03
2023-04-14T01:46:14.463Z,8.03
2023-04-14T01:47:14.333Z,8.01
2023-04-14T01:48:14.328Z,8.00
2023-04-14T01:49:14.329Z,8.00
2023-04-14T01:50:14.387Z,7.98
2023-04-14T01:51:14.290Z,7.94
2023-04-14T01:52:14.303Z,7.88
2023-04-14T01:53:14.274Z,7.87
2023-04-14T01:54:14.272Z,7.88
2023-04-14T01:55:14.303Z,7.90
2023-04-14T01:56:14.249Z,7.91
2023-04-14T01:57:14.225Z,7.88
2023-04-14T01:58:14.226Z,7.90
2023-04-14T01:59:14.198Z,7.87
2023-04-14T02:00:14.235Z,7.87
2023-04-14T02:01:14.263Z,7.87
2023-04-14T02:02:14.275Z,7.82
2023-04-14T02:03:14.225Z,7.82
2023-04-14T02:04:14.352Z,7.80
2023-04-14T02:05:14.135Z,7.76
2023-04-14T02:06:14.175Z,7.75
2023-04-14T02:07:14.123Z,7.73
2023-04-14T02:08:14.102Z,7.70
2023-04-14T02:09:14.092Z,7.69
2023-04-14T02:10:14.092Z,7.67
2023-04-14T02:11:14.110Z,7.67
2023-04-14T02:12:14.058Z,7.67
2023-04-14T02:13:14.048Z,7.66
2023-04-14T02:14:14.025Z,7.66
2023-04-14T02:15:14.011Z,7.61
2023-04-14T02:16:14.095Z,7.60
2023-04-14T02:17:13.999Z,7.60
2023-04-14T02:18:13.989Z,7.63
2023-04-14T02:19:13.987Z,7.63
2023-04-14T02:20:13.968Z,7.60
2023-04-14T02:21:13.996Z,7.58
2023-04-14T02:22:13.930Z,7.57
2023-04-14T02:23:13.927Z,7.58
2023-04-14T02:24:13.927Z,7.60
2023-04-14T02:25:13.900Z,7.61
2023-04-14T02:26:13.944Z,7.60
2023-04-14T02:27:13.889Z,7.60
2023-04-14T02:28:13.870Z,7.61
2023-04-14T02:29:13.918Z,7.61
2023-04-14T02:30:13.863Z,7.63
2023-04-14T02:31:13.911Z,7.63
2023-04-14T02:32:13.828Z,7.67
2023-04-14T02:33:13.803Z,7.70
2023-04-14T02:34:13.807Z,7.70
2023-04-14T02:35:13.796Z,7.69
2023-04-14T02:36:13.822Z,7.67
2023-04-14T02:37:13.762Z,7.67
2023-04-14T02:38:13.756Z,7.66
2023-04-14T02:39:13.744Z,7.66
2023-04-14T02:40:13.747Z,7.63
2023-04-14T02:41:13.763Z,7.63
2023-04-14T02:42:13.714Z,7.63
2023-04-14T02:43:13.708Z,7.63
2023-04-14T02:44:13.677Z,7.61
2023-04-14T02:45:13.661Z,7.58
2023-04-14T02:46:13.727Z,7.56
2023-04-14T02:47:13.655Z,7.51
2023-04-14T02:48:13.658Z,7.48
2023-04-14T02:49:13.640Z,7.48
2023-04-14T02:50:13.664Z,7.48
2023-04-14T02:51:13.628Z,7.50
2023-04-14T02:52:13.617Z,7.47
2023-04-14T02:53:13.589Z,7.47
2023-04-14T02:54:13.586Z,7.47
2023-04-14T02:55:13.599Z,7.47
2023-04-14T02:56:13.556Z,7.45
2023-04-14T02:57:13.556Z,7.45
2023-04-14T02:58:13.551Z,7.43
2023-04-14T02:59:13.507Z,7.40
2023-04-14T03:00:13.555Z,7.40
2023-04-14T03:01:13.513Z,7.39
2023-04-14T03:02:13.668Z,7.36
2023-04-14T03:03:13.608Z,7.35
2023-04-14T03:04:13.480Z,7.35
2023-04-14T03:05:13.446Z,7.35
2023-04-14T03:06:13.479Z,7.33
2023-04-14T03:07:13.428Z,7.32
2023-04-14T03:08:13.427Z,7.31
2023-04-14T03:09:13.416Z,7.31
2023-04-14T03:10:13.392Z,7.29
2023-04-14T03:11:13.396Z,7.28
2023-04-14T03:12:13.360Z,7.31
2023-04-14T03:13:13.363Z,7.32
2023-04-14T03:14:13.367Z,7.36
2023-04-14T03:15:13.327Z,7.38
2023-04-14T03:16:13.418Z,7.40
2023-04-14T03:17:13.317Z,7.42
2023-04-14T03:18:13.306Z,7.43
2023-04-14T03:19:13.286Z,7.42
2023-04-14T03:20:13.284Z,7.42
2023-04-14T03:21:13.294Z,7.42
2023-04-14T03:22:13.269Z,7.45
2023-04-14T03:23:13.266Z,7.42
2023-04-14T03:24:13.232Z,7.40
2023-04-14T03:25:13.248Z,7.40
2023-04-14T03:26:13.258Z,7.42
2023-04-14T03:27:13.199Z,7.42
2023-04-14T03:28:13.182Z,7.42
2023-04-14T03:29:13.169Z,7.42
2023-04-14T03:30:13.177Z,7.38
2023-04-14T03:31:13.202Z,7.36
2023-04-14T03:32:13.140Z,7.36
2023-04-14T03:33:13.151Z,7.36
2023-04-14T03:34:13.129Z,7.35
2023-04-14T03:35:13.122Z,7.38
2023-04-14T03:36:13.166Z,7.38
2023-04-14T03:37:13.085Z,7.39
2023-04-14T03:38:13.097Z,7.39
2023-04-14T03:39:13.059Z,7.39
2023-04-14T03:40:13.050Z,7.38
2023-04-14T03:41:13.072Z,7.36
2023-04-14T03:42:13.017Z,7.36
2023-04-14T03:43:13.007Z,7.33
2023-04-14T03:44:13.007Z,7.36
2023-04-14T03:45:12.992Z,7.35
2023-04-14T03:46:13.031Z,7.33
2023-04-14T03:47:12.974Z,7.35
2023-04-14T03:48:12.960Z,7.32
2023-04-14T03:49:12.950Z,7.32
2023-04-14T03:50:12.939Z,7.32
2023-04-14T03:51:12.965Z,7.29
2023-04-14T03:52:12.912Z,7.31
2023-04-14T03:53:12.904Z,7.29
2023-04-14T03:54:12.899Z,7.31
2023-04-14T03:55:12.900Z,7.33
2023-04-14T03:56:12.940Z,7.35
2023-04-14T03:57:12.855Z,7.36
2023-04-14T03:58:12.855Z,7.38
2023-04-14T03:59:12.850Z,7.36
2023-04-14T04:00:12.866Z,7.36
2023-04-14T04:01:12.857Z,7.36
2023-04-14T04:02:12.849Z,7.36
2023-04-14T04:03:13.009Z,7.33
2023-04-14T04:04:12.878Z,7.32
2023-04-14T04:05:12.801Z,7.32
2023-04-14T04:06:12.804Z,7.31
2023-04-14T04:07:12.746Z,7.29
2023-04-14T04:08:12.746Z,7.31
2023-04-14T04:09:12.739Z,7.29
2023-04-14T04:10:12.757Z,7.28
2023-04-14T04:11:12.747Z,7.29
2023-04-14T04:12:12.690Z,7.31
2023-04-14T04:13:12.674Z,7.33
2023-04-14T04:14:12.666Z,7.33
2023-04-14T04:15:12.687Z,7.35
2023-04-14T04:16:12.702Z,7.35
2023-04-14T04:17:12.641Z,7.11
2023-04-14T04:18:12.633Z,7.20
2023-04-14T04:19:12.614Z,7.21
2023-04-14T04:20:12.612Z,7.33
2023-04-14T04:21:12.636Z,7.35
2023-04-14T04:22:12.573Z,7.36
2023-04-14T04:23:12.572Z,7.35
2023-04-14T04:24:12.543Z,7.35
2023-04-14T04:25:12.678Z,7.35
2023-04-14T04:26:12.574Z,7.33
2023-04-14T04:27:24.243Z,7.33
2023-04-14T04:28:13.502Z,7.35
2023-04-14T04:29:12.509Z,7.33
2023-04-14T04:30:12.502Z,7.33
2023-04-14T04:31:12.536Z,7.33
2023-04-14T04:32:12.493Z,7.33
2023-04-14T04:33:12.534Z,7.35
2023-04-14T04:34:12.457Z,7.35
2023-04-14T04:35:12.558Z,7.36
2023-04-14T04:36:12.463Z,7.36
2023-04-14T04:37:12.441Z,7.39
2023-04-14T04:38:12.394Z,7.40
2023-04-14T04:39:12.383Z,7.43
2023-04-14T04:40:12.351Z,7.45
2023-04-14T04:41:12.417Z,7.48
2023-04-14T04:42:12.343Z,7.50
2023-04-14T04:43:12.363Z,7.50
2023-04-14T04:44:12.338Z,7.51
2023-04-14T04:45:12.426Z,7.51
2023-04-14T04:46:12.391Z,7.51
2023-04-14T04:47:12.310Z,7.51
2023-04-14T04:48:12.299Z,7.50
2023-04-14T04:49:12.288Z,7.50
2023-04-14T04:50:12.267Z,7.50
2023-04-14T04:51:12.309Z,7.51
2023-04-14T04:52:12.378Z,7.50
2023-04-14T04:53:12.487Z,7.50
2023-04-14T04:54:12.220Z,7.48
2023-04-14T04:55:12.219Z,7.48
2023-04-14T04:56:12.246Z,7.48
2023-04-14T04:57:12.398Z,7.48
2023-04-14T04:58:12.199Z,7.48
2023-04-14T04:59:12.189Z,7.50
2023-04-14T05:00:12.319Z,7.48
2023-04-14T05:01:12.226Z,7.48
2023-04-14T05:02:12.171Z,7.50
2023-04-14T05:03:12.178Z,7.50
2023-04-14T05:04:12.147Z,7.50
2023-04-14T05:05:12.105Z,7.50
2023-04-14T05:06:12.170Z,7.50
2023-04-14T05:07:12.083Z,7.50
2023-04-14T05:08:14.951Z,7.50
2023-04-14T05:09:12.060Z,7.50
2023-04-14T05:10:12.035Z,7.50
2023-04-14T05:11:12.067Z,7.24
2023-04-14T05:12:12.024Z,7.32
2023-04-14T05:13:12.003Z,7.48
2023-04-14T05:14:11.994Z,7.48
2023-04-14T05:15:11.977Z,7.50
2023-04-14T05:16:12.081Z,7.33
2023-04-14T05:17:12.002Z,7.54
2023-04-14T05:18:11.937Z,7.56
2023-04-14T05:19:11.944Z,7.57
2023-04-14T05:20:11.932Z,7.57
2023-04-14T05:21:11.916Z,7.58
2023-04-14T05:22:11.970Z,7.58
2023-04-14T05:23:11.961Z,7.60
2023-04-14T05:24:11.899Z,7.63
2023-04-14T05:25:11.892Z,7.66
2023-04-14T05:26:31.187Z,7.66
2023-04-14T05:27:14.616Z,7.67
2023-04-14T05:28:11.866Z,7.69
2023-04-14T05:29:11.873Z,7.70
2023-04-14T05:30:11.816Z,7.70
2023-04-14T05:31:11.856Z,7.72
2023-04-14T05:32:11.852Z,7.73
2023-04-14T05:33:11.787Z,7.75
2023-04-14T05:34:11.813Z,7.73
2023-04-14T05:35:11.768Z,7.76
2023-04-14T05:36:11.736Z,7.77
2023-04-14T05:37:11.768Z,7.82
2023-04-14T05:38:11.707Z,7.85
2023-04-14T05:39:11.727Z,7.88
2023-04-14T05:40:11.705Z,7.90
2023-04-14T05:41:11.700Z,7.93
2023-04-14T05:42:11.702Z,7.95
2023-04-14T05:43:11.657Z,7.98
2023-04-14T05:44:11.650Z,8.00
2023-04-14T05:45:11.637Z,8.01
2023-04-14T05:46:11.691Z,8.01
2023-04-14T05:47:11.615Z,8.05
2023-04-14T05:48:11.600Z,8.03
2023-04-14T05:49:11.612Z,8.05
2023-04-14T05:50:11.565Z,8.05
2023-04-14T05:51:11.613Z,8.06
2023-04-14T05:52:11.544Z,8.00
2023-04-14T05:53:11.538Z,7.98
2023-04-14T05:54:11.544Z,7.97
2023-04-14T05:55:11.546Z,7.94
2023-04-14T05:56:11.653Z,7.91
2023-04-14T05:57:11.507Z,7.90
2023-04-14T05:58:11.495Z,7.88
2023-04-14T05:59:11.470Z,7.87
2023-04-14T06:00:11.435Z,7.87
2023-04-14T06:01:11.487Z,7.88
2023-04-14T06:02:11.508Z,7.87
2023-04-14T06:03:11.657Z,7.87
2023-04-14T06:04:11.842Z,7.88
2023-04-14T06:05:11.495Z,7.88
2023-04-14T06:06:11.425Z,7.88
2023-04-14T06:07:11.379Z,7.88
2023-04-14T06:08:11.369Z,7.87
2023-04-14T06:09:11.356Z,7.90
2023-04-14T06:10:11.335Z,7.88
2023-04-14T06:11:11.374Z,7.90
2023-04-14T06:12:11.319Z,7.88
2023-04-14T06:13:11.336Z,7.85
2023-04-14T06:14:11.321Z,7.82
2023-04-14T06:15:11.277Z,7.80
2023-04-14T06:16:11.329Z,7.77
2023-04-14T06:17:11.302Z,7.76
2023-04-14T06:18:11.256Z,7.75
2023-04-14T06:19:11.243Z,7.75
2023-04-14T06:20:11.228Z,7.73
2023-04-14T06:21:11.241Z,7.72
2023-04-14T06:22:11.199Z,7.69
2023-04-14T06:23:11.190Z,7.69
2023-04-14T06:24:11.180Z,7.69
2023-04-14T06:25:11.163Z,7.67
2023-04-14T06:26:11.194Z,7.69
2023-04-14T06:27:11.142Z,7.70
2023-04-14T06:28:11.139Z,7.70
2023-04-14T06:29:11.099Z,7.72
2023-04-14T06:30:11.115Z,7.73
2023-04-14T06:31:11.134Z,7.76
2023-04-14T06:32:11.184Z,7.76
2023-04-14T06:33:11.122Z,7.76
2023-04-14T06:34:11.050Z,7.76
2023-04-14T06:35:19.082Z,7.77
2023-04-14T06:36:12.101Z,7.70
2023-04-14T06:37:11.038Z,7.69
2023-04-14T06:38:11.020Z,7.63
2023-04-14T06:39:11.002Z,7.61
2023-04-14T06:40:10.986Z,7.61
2023-04-14T06:41:10.989Z,7.61
2023-04-14T06:42:11.011Z,7.58
2023-04-14T06:43:10.973Z,7.57
2023-04-14T06:44:10.957Z,7.56
2023-04-14T06:45:10.941Z,7.60
2023-04-14T06:46:11.008Z,7.58
2023-04-14T06:47:10.957Z,7.57
2023-04-14T06:48:10.964Z,7.56
2023-04-14T06:49:10.923Z,7.43
2023-04-14T06:50:10.884Z,7.45
2023-04-14T06:51:10.904Z,7.60
2023-04-14T06:52:10.913Z,7.63
2023-04-14T06:53:10.873Z,7.66
2023-04-14T06:54:10.832Z,7.69
2023-04-14T06:55:10.818Z,7.48
2023-04-14T06:56:10.803Z,7.56
2023-04-14T06:57:10.848Z,7.50
2023-04-14T06:58:10.838Z,7.51
2023-04-14T06:59:10.787Z,7.63
2023-04-14T07:00:10.781Z,7.67
2023-04-14T07:01:10.815Z,7.66
2023-04-14T07:02:10.836Z,7.61
2023-04-14T07:03:10.745Z,7.67
2023-04-14T07:04:10.784Z,7.66
2023-04-14T07:05:10.724Z,7.69
2023-04-14T07:06:10.747Z,7.61
2023-04-14T07:07:10.686Z,7.61
2023-04-14T07:08:10.682Z,7.63
2023-04-14T07:09:10.691Z,7.61
2023-04-14T07:10:10.694Z,7.60
2023-04-14T07:11:10.691Z,7.57
2023-04-14T07:12:10.620Z,7.60
2023-04-14T07:13:10.629Z,7.69
2023-04-14T07:14:10.583Z,7.75
2023-04-14T07:15:10.582Z,7.77
2023-04-14T07:16:10.652Z,7.80
2023-04-14T07:17:10.560Z,7.72
2023-04-14T07:18:10.588Z,7.75
2023-04-14T07:19:10.551Z,7.79
2023-04-14T07:20:10.543Z,7.82
2023-04-14T07:21:10.534Z,7.88
2023-04-14T07:22:10.577Z,7.93
2023-04-14T07:23:10.482Z,7.91
2023-04-14T07:24:10.472Z,7.87
2023-04-14T07:25:10.483Z,7.90
2023-04-14T07:26:10.461Z,7.88
2023-04-14T07:27:10.519Z,7.90
2023-04-14T07:28:10.430Z,7.87
2023-04-14T07:29:10.426Z,7.85
2023-04-14T07:30:10.404Z,7.93
2023-04-14T07:31:10.422Z,7.98
2023-04-14T07:32:10.448Z,7.94
2023-04-14T07:33:10.457Z,7.97
2023-04-14T07:34:10.377Z,7.95
2023-04-14T07:35:10.362Z,7.93
2023-04-14T07:36:10.336Z,7.94
2023-04-14T07:37:10.378Z,7.98
2023-04-14T07:38:10.315Z,8.00
2023-04-14T07:39:10.311Z,7.95
2023-04-14T07:40:10.296Z,7.97
2023-04-14T07:41:10.352Z,7.98
2023-04-14T07:42:10.279Z,7.98
2023-04-14T07:43:10.262Z,8.05
2023-04-14T07:44:10.236Z,8.06
2023-04-14T07:45:10.221Z,8.09
2023-04-14T07:46:10.322Z,8.03
2023-04-14T07:47:10.227Z,7.94
2023-04-14T07:48:10.254Z,7.97
2023-04-14T07:49:10.179Z,8.00
2023-04-14T07:50:10.174Z,7.95
2023-04-14T07:51:10.227Z,7.98
2023-04-14T07:52:10.156Z,7.98
2023-04-14T07:53:10.155Z,7.97
2023-04-14T07:54:10.169Z,7.93
2023-04-14T07:55:10.126Z,7.88
2023-04-14T07:56:10.148Z,7.87
2023-04-14T07:57:10.095Z,7.83
2023-04-14T07:58:15.105Z,7.77
2023-04-14T07:59:11.079Z,7.80
2023-04-14T08:00:10.057Z,7.77
2023-04-14T08:01:10.074Z,7.76
2023-04-14T08:02:10.111Z,7.77
2023-04-14T08:03:10.344Z,7.85
2023-04-14T08:04:10.331Z,7.90
2023-04-14T08:05:10.048Z,7.90
2023-04-14T08:06:10.037Z,7.93
2023-04-14T08:07:09.978Z,7.91
2023-04-14T08:08:09.962Z,7.93
2023-04-14T08:09:09.962Z,7.93
2023-04-14T08:10:09.926Z,7.91
2023-04-14T08:11:09.961Z,7.93
2023-04-14T08:12:09.925Z,7.85
2023-04-14T08:13:09.916Z,7.82
2023-04-14T08:14:09.905Z,7.88
2023-04-14T08:15:09.872Z,7.94
2023-04-14T08:16:09.922Z,7.91
2023-04-14T08:17:09.833Z,7.91
2023-04-14T08:18:09.938Z,7.97
2023-04-14T08:19:09.864Z,7.98
2023-04-14T08:20:09.822Z,7.91
2023-04-14T08:21:09.864Z,7.80
2023-04-14T08:22:09.803Z,7.87
2023-04-14T08:23:09.772Z,8.05
2023-04-14T08:24:09.771Z,8.03
2023-04-14T08:25:09.785Z,8.00
2023-04-14T08:26:09.773Z,7.97
2023-04-14T08:27:09.760Z,7.98
2023-04-14T08:28:09.749Z,7.98
2023-04-14T08:29:09.725Z,8.01
2023-04-14T08:30:10.960Z,8.01
2023-04-14T08:31:09.719Z,8.05
2023-04-14T08:32:09.794Z,8.09
2023-04-14T08:33:09.759Z,8.12
2023-04-14T08:34:09.668Z,8.06
2023-04-14T08:35:37.305Z,8.03
2023-04-14T08:36:10.678Z,8.03
2023-04-14T08:37:09.609Z,8.00
2023-04-14T08:38:09.619Z,8.05
2023-04-14T08:39:09.595Z,8.06
2023-04-14T08:40:09.634Z,8.09
2023-04-14T08:41:09.606Z,8.03
2023-04-14T08:42:09.549Z,8.08
2023-04-14T08:43:10.217Z,8.06
2023-04-14T08:44:09.522Z,8.00
2023-04-14T08:45:09.567Z,7.97
2023-04-14T08:46:09.647Z,7.97
2023-04-14T08:47:09.504Z,7.95
2023-04-14T08:48:09.614Z,7.95
2023-04-14T08:49:09.472Z,7.94
2023-04-14T08:50:09.498Z,7.97
2023-04-14T08:51:09.518Z,7.97
2023-04-14T08:52:09.442Z,8.01
2023-04-14T08:53:09.461Z,8.08
2023-04-14T08:54:09.447Z,8.13
2023-04-14T08:55:09.424Z,8.16
2023-04-14T08:56:09.555Z,8.12
2023-04-14T08:57:09.404Z,8.16
2023-04-14T08:58:09.388Z,8.24
2023-04-14T08:59:09.359Z,8.18
2023-04-14T09:00:09.382Z,8.12
2023-04-14T09:01:09.414Z,8.09
2023-04-14T09:02:09.540Z,8.10
2023-04-14T09:03:09.729Z,8.08
2023-04-14T09:04:09.648Z,8.09
2023-04-14T09:05:09.338Z,8.10
2023-04-14T09:06:09.360Z,8.15
2023-04-14T09:07:09.262Z,8.19
2023-04-14T09:08:09.278Z,8.26
2023-04-14T09:09:09.247Z,8.27
2023-04-14T09:10:09.227Z,8.26
2023-04-14T09:11:09.290Z,8.19
2023-04-14T09:12:09.234Z,8.19
2023-04-14T09:13:09.200Z,8.24
2023-04-14T09:14:09.189Z,8.23
2023-04-14T09:15:09.197Z,8.23
2023-04-14T09:16:09.192Z,8.27
2023-04-14T09:17:09.245Z,8.28
2023-04-14T09:18:09.235Z,8.26
2023-04-14T09:19:09.122Z,8.23
2023-04-14T09:20:34.486Z,8.20
2023-04-14T09:21:49.337Z,8.19
2023-04-14T09:22:10.129Z,8.16
2023-04-14T09:23:09.097Z,8.19
2023-04-14T09:24:11.608Z,8.23
2023-04-14T09:25:09.071Z,8.19
2023-04-14T09:26:09.133Z,8.23
2023-04-14T09:27:09.043Z,8.27
2023-04-14T09:28:09.052Z,8.30
2023-04-14T09:29:09.081Z,8.31
2023-04-14T09:30:09.026Z,8.26
2023-04-14T09:31:09.137Z,8.30
2023-04-14T09:32:09.000Z,8.28
2023-04-14T09:33:08.973Z,8.30
2023-04-14T09:34:08.997Z,8.37
2023-04-14T09:35:08.972Z,8.38
2023-04-14T09:36:08.956Z,8.37
2023-04-14T09:37:08.938Z,8.36
2023-04-14T09:38:08.950Z,8.31
2023-04-14T09:39:08.919Z,8.37
2023-04-14T09:40:08.938Z,8.42
2023-04-14T09:41:08.939Z,8.44
2023-04-14T09:42:08.891Z,8.48
2023-04-14T09:43:08.851Z,8.51
2023-04-14T09:44:08.847Z,8.49
2023-04-14T09:45:08.918Z,8.52
2023-04-14T09:46:08.872Z,8.51
2023-04-14T09:47:08.807Z,8.52
2023-04-14T09:48:08.818Z,8.49
2023-04-14T09:49:08.821Z,8.49
2023-04-14T09:50:08.838Z,8.51
2023-04-14T09:51:08.781Z,8.49
2023-04-14T09:52:08.793Z,8.53
2023-04-14T09:53:08.756Z,8.56
2023-04-14T09:54:08.729Z,8.63
2023-04-14T09:55:08.750Z,8.70
2023-04-14T09:56:08.719Z,8.71
2023-04-14T09:57:08.691Z,8.74
2023-04-14T09:58:08.691Z,8.67
2023-04-14T09:59:08.673Z,8.64
2023-04-14T10:00:08.682Z,8.67
2023-04-14T10:01:08.683Z,8.70
2023-04-14T10:02:08.811Z,8.71
2023-04-14T10:03:08.736Z,8.67
2023-04-14T10:04:08.604Z,8.71
2023-04-14T10:05:08.734Z,8.69
2023-04-14T10:06:08.587Z,8.71
2023-04-14T10:07:08.583Z,8.67
2023-04-14T10:08:08.614Z,8.67
2023-04-14T10:09:08.569Z,8.60
2023-04-14T10:10:08.585Z,8.56
2023-04-14T10:11:08.523Z,8.49
2023-04-14T10:12:09.989Z,8.58
2023-04-14T10:13:08.513Z,8.60
2023-04-14T10:14:08.516Z,8.56
2023-04-14T10:15:08.529Z,8.58
2023-04-14T10:16:08.516Z,8.63
2023-04-14T10:17:08.460Z,8.70
2023-04-14T10:18:08.469Z,8.69
2023-04-14T10:19:08.451Z,8.69
2023-04-14T10:20:08.494Z,8.70
2023-04-14T10:21:08.422Z,8.73
2023-04-14T10:22:08.434Z,8.79
2023-04-14T10:23:08.408Z,8.79
2023-04-14T10:24:08.383Z,8.74
2023-04-14T10:25:08.393Z,8.78
2023-04-14T10:26:08.440Z,8.74
2023-04-14T10:27:08.406Z,8.69
2023-04-14T10:28:08.334Z,8.71
2023-04-14T10:29:08.333Z,8.78
2023-04-14T10:30:08.320Z,8.81
2023-04-14T10:31:08.393Z,8.88
2023-04-14T10:32:08.564Z,8.92
2023-04-14T10:33:08.349Z,8.91
2023-04-14T10:34:08.279Z,8.95
2023-04-14T10:35:08.260Z,8.92
2023-04-14T10:36:08.301Z,8.88
2023-04-14T10:37:08.232Z,8.92
2023-04-14T10:38:08.234Z,8.97
2023-04-14T10:39:08.255Z,9.00
2023-04-14T10:40:08.248Z,8.91
2023-04-14T10:41:08.265Z,8.91
2023-04-14T10:42:08.206Z,8.95
2023-04-14T10:43:08.168Z,8.95
2023-04-14T10:44:08.174Z,8.97
2023-04-14T10:45:08.172Z,8.99
2023-04-14T10:46:08.199Z,8.92
2023-04-14T10:47:08.740Z,8.92
2023-04-14T10:48:08.115Z,9.02
2023-04-14T10:49:08.118Z,9.10
2023-04-14T10:50:08.101Z,9.14
2023-04-14T10:51:08.150Z,9.18
2023-04-14T10:52:08.049Z,9.21
2023-04-14T10:53:08.051Z,9.11
2023-04-14T10:54:08.043Z,9.21
2023-04-14T10:55:08.152Z,9.18
2023-04-14T10:56:08.070Z,9.23
2023-04-14T10:57:07.997Z,9.23
2023-04-14T10:58:08.007Z,9.22
2023-04-14T10:59:07.979Z,9.18
2023-04-14T11:00:07.968Z,9.22
2023-04-14T11:01:08.046Z,9.22
2023-04-14T11:02:07.969Z,9.25
2023-04-14T11:03:08.161Z,9.23
2023-04-14T11:04:08.057Z,9.26
2023-04-14T11:05:07.898Z,9.21
2023-04-14T11:06:07.956Z,9.25
2023-04-14T11:07:07.884Z,9.29
2023-04-14T11:08:07.884Z,9.29
2023-04-14T11:09:07.866Z,9.32
2023-04-14T11:10:07.868Z,9.40
2023-04-14T11:11:07.898Z,9.36
2023-04-14T11:12:07.858Z,9.44
2023-04-14T11:13:07.832Z,9.37
2023-04-14T11:14:07.809Z,9.26
2023-04-14T11:15:07.816Z,9.25
2023-04-14T11:16:08.105Z,9.36
2023-04-14T11:17:07.797Z,9.51
2023-04-14T11:18:07.809Z,9.59
2023-04-14T11:19:07.744Z,9.41
2023-04-14T11:20:07.733Z,9.34
2023-04-14T11:21:07.767Z,9.39
2023-04-14T11:22:07.725Z,9.44
2023-04-14T11:23:07.706Z,9.34
2023-04-14T11:24:07.696Z,9.36
2023-04-14T11:25:07.687Z,9.41
2023-04-14T11:26:07.752Z,9.44
2023-04-14T11:27:07.681Z,9.39
2023-04-14T11:28:07.662Z,9.36
2023-04-14T11:29:07.656Z,9.37
2023-04-14T11:30:07.721Z,9.34
2023-04-14T11:31:07.675Z,9.34
2023-04-14T11:32:07.637Z,9.41
2023-04-14T11:33:07.638Z,9.47
2023-04-14T11:34:07.608Z,9.58
2023-04-14T11:35:07.699Z,9.62
2023-04-14T11:36:07.769Z,9.66
2023-04-14T11:37:07.567Z,9.58
2023-04-14T11:38:07.575Z,9.64
2023-04-14T11:39:07.533Z,9.51
2023-04-14T11:40:07.543Z,9.51
2023-04-14T11:41:07.626Z,9.51
2023-04-14T11:42:07.493Z,9.51
2023-04-14T11:43:07.483Z,9.59
2023-04-14T11:44:07.502Z,9.58
2023-04-14T11:45:07.462Z,9.59
2023-04-14T11:46:07.487Z,9.73
2023-04-14T11:47:07.413Z,9.82
2023-04-14T11:48:07.479Z,9.69
2023-04-14T11:49:07.473Z,9.74
2023-04-14T11:50:07.428Z,9.80
2023-04-14T11:51:07.489Z,9.77
2023-04-14T11:52:07.397Z,9.74
2023-04-14T11:53:07.363Z,9.69
2023-04-14T11:54:07.400Z,9.76
2023-04-14T11:55:07.352Z,9.65
2023-04-14T11:56:07.402Z,9.73
2023-04-14T11:57:07.339Z,9.62
2023-04-14T11:58:07.340Z,9.68
2023-04-14T11:59:07.301Z,9.62
2023-04-14T12:00:07.294Z,9.66
2023-04-14T12:01:07.341Z,9.58
2023-04-14T12:02:07.386Z,9.56
2023-04-14T12:03:07.346Z,9.51
2023-04-14T12:04:07.431Z,9.46
2023-04-14T12:05:07.556Z,9.44
2023-04-14T12:06:07.307Z,9.51
2023-04-14T12:07:07.211Z,9.55
2023-04-14T12:08:07.192Z,9.44
2023-04-14T12:09:07.192Z,9.50
2023-04-14T12:10:07.188Z,9.51
2023-04-14T12:11:07.201Z,9.48
2023-04-14T12:12:07.142Z,9.46
2023-04-14T12:13:07.118Z,9.44
2023-04-14T12:14:07.108Z,9.54
2023-04-14T12:15:07.112Z,9.68
2023-04-14T12:16:07.173Z,9.79
2023-04-14T12:17:07.111Z,9.89
2023-04-14T12:18:07.168Z,9.92
2023-04-14T12:19:07.086Z,9.80
2023-04-14T12:20:07.061Z,9.68
2023-04-14T12:21:09.801Z,9.64
2023-04-14T12:22:07.052Z,9.62
2023-04-14T12:23:07.055Z,9.54
2023-04-14T12:24:07.009Z,9.48
2023-04-14T12:25:07.026Z,9.48
2023-04-14T12:26:07.030Z,9.39
2023-04-14T12:27:06.970Z,9.54
2023-04-14T12:28:07.059Z,9.59
2023-04-14T12:29:06.958Z,9.69
2023-04-14T12:30:06.963Z,9.76
2023-04-14T12:31:07.035Z,9.69
2023-04-14T12:32:07.022Z,9.64
2023-04-14T12:33:06.925Z,9.74
2023-04-14T12:34:06.932Z,9.87
2023-04-14T12:35:06.888Z,9.82
2023-04-14T12:36:06.940Z,10.01
2023-04-14T12:37:06.887Z,10.07
2023-04-14T12:38:06.849Z,10.12
2023-04-14T12:39:06.818Z,10.05
2023-04-14T12:40:06.848Z,9.99
2023-04-14T12:41:06.854Z,10.09
2023-04-14T12:42:06.866Z,10.16
2023-04-14T12:43:06.824Z,10.25
2023-04-14T12:44:06.797Z,10.19
2023-04-14T12:45:06.781Z,10.05
2023-04-14T12:46:06.757Z,10.10
2023-04-14T12:47:06.843Z,10.15
2023-04-14T12:48:06.772Z,9.99
2023-04-14T12:49:06.727Z,9.95
2023-04-14T12:50:06.697Z,9.80
2023-04-14T12:51:06.691Z,9.80
2023-04-14T12:52:06.737Z,9.74
2023-04-14T12:53:06.671Z,9.83
2023-04-14T12:54:06.670Z,9.83
2023-04-14T12:55:06.666Z,9.79
2023-04-14T12:56:06.663Z,9.74
2023-04-14T12:57:06.694Z,9.69
2023-04-14T12:58:06.650Z,9.73
2023-04-14T12:59:06.632Z,9.73
2023-04-14T13:00:06.580Z,9.82
2023-04-14T13:01:06.699Z,9.80
2023-04-14T13:02:06.730Z,9.84
2023-04-14T13:03:06.655Z,9.80
2023-04-14T13:04:06.744Z,9.82
2023-04-14T13:05:06.528Z,9.82
2023-04-14T13:06:06.521Z,9.83
2023-04-14T13:07:06.586Z,9.99
2023-04-14T13:08:06.487Z,10.04
2023-04-14T13:09:06.516Z,9.97
2023-04-14T13:10:06.492Z,9.94
2023-04-14T13:11:06.496Z,9.95
2023-04-14T13:12:06.524Z,9.99
2023-04-14T13:13:06.481Z,9.94
2023-04-14T13:14:06.532Z,9.87
2023-04-14T13:15:06.431Z,9.91
2023-04-14T13:16:13.247Z,9.95
2023-04-14T13:17:07.606Z,10.02
2023-04-14T13:18:06.459Z,10.09